sensor_id;sensor_type;location;lat;lon;timestamp;P1;durP1;ratioP1;P2;durP2;ratioP2
38911;SDS011;28444;48.056;14.408;2022-11-20T00:01:24;71.60;;;30.77;;
38911;SDS011;28444;48.056;14.408;2022-11-20T00:04:12;68.75;;;29.67;;
38911;SDS011;28444;48.056;14.408;2022-11-20T00:06:59;64.82;;;29.08;;
38911;SDS011;28444;48.056;14.408;2022-11-20T00:09:46;60.92;;;29.70;;
38911;SDS011;28444;48.056;14.408;2022-11-20T00:12:33;63.22;;;27.83;;
38911;SDS011;28444;48.056;14.408;2022-11-20T00:15:20;69.70;;;29.80;;
38911;SDS011;28444;48.056;14.408;2022-11-20T00:18:08;59.95;;;27.52;;
38911;SDS011;28444;48.056;14.408;2022-11-20T00:21:00;66.75;;;28.90;;
38911;SDS011;28444;48.056;14.408;2022-11-20T00:23:51;63.85;;;28.83;;
38911;SDS011;28444;48.056;14.408;2022-11-20T00:26:41;59.78;;;27.45;;
38911;SDS011;28444;48.056;14.408;2022-11-20T00:29:28;64.57;;;27.70;;
38911;SDS011;28444;48.056;14.408;2022-11-20T00:32:15;55.30;;;26.83;;
38911;SDS011;28444;48.056;14.408;2022-11-20T00:35:02;66.28;;;27.35;;
38911;SDS011;28444;48.056;14.408;2022-11-20T00:37:49;65.50;;;27.20;;
38911;SDS011;28444;48.056;14.408;2022-11-20T00:40:36;62.00;;;28.15;;
38911;SDS011;28444;48.056;14.408;2022-11-20T00:43:23;62.42;;;29.63;;
38911;SDS011;28444;48.056;14.408;2022-11-20T00:46:13;65.05;;;29.45;;
38911;SDS011;28444;48.056;14.408;2022-11-20T00:49:02;64.18;;;27.98;;
38911;SDS011;28444;48.056;14.408;2022-11-20T00:51:49;63.97;;;29.73;;
38911;SDS011;28444;48.056;14.408;2022-11-20T00:54:36;54.88;;;27.58;;
38911;SDS011;28444;48.056;14.408;2022-11-20T00:57:23;55.63;;;27.23;;
38911;SDS011;28444;48.056;14.408;2022-11-20T01:00:10;70.57;;;29.73;;
38911;SDS011;28444;48.056;14.408;2022-11-20T01:02:57;64.88;;;29.20;;
38911;SDS011;28444;48.056;14.408;2022-11-20T01:05:44;62.63;;;29.15;;
38911;SDS011;28444;48.056;14.408;2022-11-20T01:08:32;68.45;;;29.83;;
38911;SDS011;28444;48.056;14.408;2022-11-20T01:11:21;80.07;;;31.77;;
38911;SDS011;28444;48.056;14.408;2022-11-20T01:14:12;69.07;;;29.73;;
38911;SDS011;28444;48.056;14.408;2022-11-20T01:17:01;75.07;;;29.95;;
38911;SDS011;28444;48.056;14.408;2022-11-20T01:19:48;68.88;;;29.23;;
38911;SDS011;28444;48.056;14.408;2022-11-20T01:22:37;67.30;;;30.83;;
38911;SDS011;28444;48.056;14.408;2022-11-20T01:25:24;64.18;;;28.13;;
38911;SDS011;28444;48.056;14.408;2022-11-20T01:28:11;67.65;;;28.58;;
38911;SDS011;28444;48.056;14.408;2022-11-20T01:30:58;68.30;;;29.33;;
38911;SDS011;28444;48.056;14.408;2022-11-20T01:33:45;65.70;;;29.55;;
38911;SDS011;28444;48.056;14.408;2022-11-20T01:36:34;74.68;;;30.45;;
38911;SDS011;28444;48.056;14.408;2022-11-20T01:39:23;69.15;;;30.58;;
38911;SDS011;28444;48.056;14.408;2022-11-20T01:42:12;76.05;;;32.35;;
38911;SDS011;28444;48.056;14.408;2022-11-20T01:48:51;65.90;;;31.65;;
38911;SDS011;28444;48.056;14.408;2022-11-20T01:51:53;61.88;;;26.50;;
38911;SDS011;28444;48.056;14.408;2022-11-20T01:54:49;60.20;;;28.48;;
38911;SDS011;28444;48.056;14.408;2022-11-20T01:57:42;65.28;;;30.83;;
38911;SDS011;28444;48.056;14.408;2022-11-20T02:00:31;63.03;;;26.75;;
38911;SDS011;28444;48.056;14.408;2022-11-20T02:03:18;61.22;;;28.48;;
38911;SDS011;28444;48.056;14.408;2022-11-20T02:09:29;67.10;;;29.17;;
38911;SDS011;28444;48.056;14.408;2022-11-20T02:12:16;75.28;;;29.23;;
38911;SDS011;28444;48.056;14.408;2022-11-20T02:15:22;74.68;;;29.75;;
38911;SDS011;28444;48.056;14.408;2022-11-20T02:18:16;60.92;;;30.42;;
38911;SDS011;28444;48.056;14.408;2022-11-20T02:21:10;67.55;;;30.83;;
38911;SDS011;28444;48.056;14.408;2022-11-20T02:24:15;70.40;;;31.92;;
38911;SDS011;28444;48.056;14.408;2022-11-20T02:27:05;63.33;;;28.63;;
38911;SDS011;28444;48.056;14.408;2022-11-20T02:32:57;69.57;;;29.40;;
38911;SDS011;28444;48.056;14.408;2022-11-20T02:35:45;72.95;;;29.55;;
38911;SDS011;28444;48.056;14.408;2022-11-20T02:38:33;70.53;;;30.98;;
38911;SDS011;28444;48.056;14.408;2022-11-20T02:41:20;70.32;;;28.30;;
38911;SDS011;28444;48.056;14.408;2022-11-20T02:44:08;68.00;;;29.70;;
38911;SDS011;28444;48.056;14.408;2022-11-20T02:46:56;66.15;;;29.55;;
38911;SDS011;28444;48.056;14.408;2022-11-20T02:49:45;74.60;;;30.30;;
38911;SDS011;28444;48.056;14.408;2022-11-20T02:52:32;70.45;;;29.50;;
38911;SDS011;28444;48.056;14.408;2022-11-20T02:55:19;66.68;;;31.40;;
38911;SDS011;28444;48.056;14.408;2022-11-20T02:58:06;59.90;;;28.65;;
38911;SDS011;28444;48.056;14.408;2022-11-20T03:00:53;67.38;;;29.52;;
38911;SDS011;28444;48.056;14.408;2022-11-20T03:03:40;63.55;;;28.67;;
38911;SDS011;28444;48.056;14.408;2022-11-20T03:06:27;64.43;;;28.60;;
38911;SDS011;28444;48.056;14.408;2022-11-20T03:09:14;58.10;;;27.55;;
38911;SDS011;28444;48.056;14.408;2022-11-20T03:12:01;65.53;;;30.00;;
38911;SDS011;28444;48.056;14.408;2022-11-20T03:14:49;64.40;;;28.73;;
38911;SDS011;28444;48.056;14.408;2022-11-20T03:17:39;72.40;;;30.33;;
38911;SDS011;28444;48.056;14.408;2022-11-20T03:20:26;63.40;;;28.55;;
38911;SDS011;28444;48.056;14.408;2022-11-20T03:23:13;72.45;;;29.30;;
38911;SDS011;28444;48.056;14.408;2022-11-20T03:26:07;74.03;;;31.48;;
38911;SDS011;28444;48.056;14.408;2022-11-20T03:28:59;70.15;;;29.08;;
38911;SDS011;28444;48.056;14.408;2022-11-20T03:31:47;76.65;;;32.50;;
38911;SDS011;28444;48.056;14.408;2022-11-20T03:34:34;65.78;;;29.58;;
38911;SDS011;28444;48.056;14.408;2022-11-20T03:37:21;59.95;;;28.08;;
38911;SDS011;28444;48.056;14.408;2022-11-20T03:40:09;60.53;;;29.83;;
38911;SDS011;28444;48.056;14.408;2022-11-20T03:42:56;59.75;;;27.55;;
38911;SDS011;28444;48.056;14.408;2022-11-20T03:45:43;64.10;;;28.73;;
38911;SDS011;28444;48.056;14.408;2022-11-20T03:48:30;67.68;;;29.65;;
38911;SDS011;28444;48.056;14.408;2022-11-20T03:51:24;63.08;;;28.55;;
38911;SDS011;28444;48.056;14.408;2022-11-20T03:54:16;62.47;;;26.77;;
38911;SDS011;28444;48.056;14.408;2022-11-20T03:57:03;60.65;;;27.20;;
38911;SDS011;28444;48.056;14.408;2022-11-20T03:59:50;64.22;;;30.25;;
38911;SDS011;28444;48.056;14.408;2022-11-20T04:02:37;64.13;;;28.60;;
38911;SDS011;28444;48.056;14.408;2022-11-20T04:05:24;63.45;;;28.83;;
38911;SDS011;28444;48.056;14.408;2022-11-20T04:08:11;61.40;;;27.88;;
38911;SDS011;28444;48.056;14.408;2022-11-20T04:11:14;65.22;;;28.23;;
38911;SDS011;28444;48.056;14.408;2022-11-20T04:14:12;68.60;;;28.20;;
38911;SDS011;28444;48.056;14.408;2022-11-20T04:17:01;61.83;;;26.63;;
38911;SDS011;28444;48.056;14.408;2022-11-20T04:19:48;59.30;;;26.83;;
38911;SDS011;28444;48.056;14.408;2022-11-20T04:22:35;61.42;;;28.77;;
38911;SDS011;28444;48.056;14.408;2022-11-20T04:25:22;57.55;;;25.98;;
38911;SDS011;28444;48.056;14.408;2022-11-20T04:28:09;57.67;;;26.10;;
38911;SDS011;28444;48.056;14.408;2022-11-20T04:31:03;56.22;;;26.60;;
38911;SDS011;28444;48.056;14.408;2022-11-20T04:34:16;58.88;;;26.92;;
38911;SDS011;28444;48.056;14.408;2022-11-20T04:37:03;58.47;;;27.63;;
38911;SDS011;28444;48.056;14.408;2022-11-20T04:39:50;54.83;;;25.55;;
38911;SDS011;28444;48.056;14.408;2022-11-20T04:42:37;59.80;;;27.05;;
38911;SDS011;28444;48.056;14.408;2022-11-20T04:45:24;61.80;;;29.40;;
38911;SDS011;28444;48.056;14.408;2022-11-20T04:48:11;60.55;;;28.25;;
38911;SDS011;28444;48.056;14.408;2022-11-20T04:51:02;64.78;;;30.60;;
38911;SDS011;28444;48.056;14.408;2022-11-20T04:53:50;64.22;;;26.77;;
38911;SDS011;28444;48.056;14.408;2022-11-20T04:56:37;59.83;;;27.80;;
38911;SDS011;28444;48.056;14.408;2022-11-20T04:59:24;57.53;;;25.85;;
38911;SDS011;28444;48.056;14.408;2022-11-20T05:02:12;66.50;;;28.15;;
38911;SDS011;28444;48.056;14.408;2022-11-20T05:04:59;59.00;;;28.73;;
38911;SDS011;28444;48.056;14.408;2022-11-20T05:07:46;64.15;;;27.23;;
38911;SDS011;28444;48.056;14.408;2022-11-20T05:10:33;61.17;;;31.02;;
38911;SDS011;28444;48.056;14.408;2022-11-20T05:13:20;59.97;;;28.58;;
38911;SDS011;28444;48.056;14.408;2022-11-20T05:16:08;61.22;;;26.58;;
38911;SDS011;28444;48.056;14.408;2022-11-20T05:18:57;65.90;;;27.70;;
38911;SDS011;28444;48.056;14.408;2022-11-20T05:21:43;64.72;;;28.33;;
38911;SDS011;28444;48.056;14.408;2022-11-20T05:24:31;64.53;;;28.70;;
38911;SDS011;28444;48.056;14.408;2022-11-20T05:27:18;61.85;;;28.27;;
38911;SDS011;28444;48.056;14.408;2022-11-20T05:30:05;58.38;;;27.77;;
38911;SDS011;28444;48.056;14.408;2022-11-20T05:32:53;56.55;;;26.08;;
38911;SDS011;28444;48.056;14.408;2022-11-20T05:35:40;58.50;;;27.73;;
38911;SDS011;28444;48.056;14.408;2022-11-20T05:38:27;62.60;;;28.02;;
38911;SDS011;28444;48.056;14.408;2022-11-20T05:41:15;133.65;;;32.17;;
38911;SDS011;28444;48.056;14.408;2022-11-20T05:44:04;80.63;;;27.77;;
38911;SDS011;28444;48.056;14.408;2022-11-20T05:46:52;68.13;;;26.70;;
38911;SDS011;28444;48.056;14.408;2022-11-20T05:49:38;58.17;;;26.88;;
38911;SDS011;28444;48.056;14.408;2022-11-20T05:52:28;61.33;;;27.77;;
38911;SDS011;28444;48.056;14.408;2022-11-20T05:55:16;57.75;;;27.23;;
38911;SDS011;28444;48.056;14.408;2022-11-20T05:58:03;55.58;;;25.33;;
38911;SDS011;28444;48.056;14.408;2022-11-20T06:00:50;53.15;;;25.40;;
38911;SDS011;28444;48.056;14.408;2022-11-20T06:03:37;56.67;;;25.65;;
38911;SDS011;28444;48.056;14.408;2022-11-20T06:06:25;57.78;;;25.13;;
38911;SDS011;28444;48.056;14.408;2022-11-20T06:09:12;58.72;;;26.95;;
38911;SDS011;28444;48.056;14.408;2022-11-20T06:11:59;58.97;;;26.70;;
38911;SDS011;28444;48.056;14.408;2022-11-20T06:14:47;61.00;;;26.60;;
38911;SDS011;28444;48.056;14.408;2022-11-20T06:17:34;57.03;;;28.10;;
38911;SDS011;28444;48.056;14.408;2022-11-20T06:20:21;58.70;;;30.20;;
38911;SDS011;28444;48.056;14.408;2022-11-20T06:23:08;61.03;;;26.70;;
38911;SDS011;28444;48.056;14.408;2022-11-20T06:25:55;58.63;;;27.48;;
38911;SDS011;28444;48.056;14.408;2022-11-20T06:28:42;59.90;;;28.25;;
38911;SDS011;28444;48.056;14.408;2022-11-20T06:31:30;56.65;;;24.83;;
38911;SDS011;28444;48.056;14.408;2022-11-20T06:34:19;57.25;;;27.80;;
38911;SDS011;28444;48.056;14.408;2022-11-20T06:37:06;48.25;;;25.05;;
38911;SDS011;28444;48.056;14.408;2022-11-20T06:39:53;54.70;;;26.90;;
38911;SDS011;28444;48.056;14.408;2022-11-20T06:42:40;56.67;;;25.45;;
38911;SDS011;28444;48.056;14.408;2022-11-20T06:45:27;50.45;;;25.90;;
38911;SDS011;28444;48.056;14.408;2022-11-20T06:48:14;55.58;;;26.58;;
38911;SDS011;28444;48.056;14.408;2022-11-20T06:51:05;60.08;;;27.30;;
38911;SDS011;28444;48.056;14.408;2022-11-20T06:53:53;51.58;;;25.17;;
38911;SDS011;28444;48.056;14.408;2022-11-20T06:56:40;47.30;;;25.20;;
38911;SDS011;28444;48.056;14.408;2022-11-20T06:59:27;53.40;;;25.10;;
38911;SDS011;28444;48.056;14.408;2022-11-20T07:02:14;51.55;;;25.17;;
38911;SDS011;28444;48.056;14.408;2022-11-20T07:05:01;56.72;;;26.48;;
38911;SDS011;28444;48.056;14.408;2022-11-20T07:07:48;51.45;;;27.40;;
38911;SDS011;28444;48.056;14.408;2022-11-20T07:10:35;49.38;;;24.60;;
38911;SDS011;28444;48.056;14.408;2022-11-20T07:13:22;55.75;;;25.98;;
38911;SDS011;28444;48.056;14.408;2022-11-20T07:16:10;54.85;;;26.75;;
38911;SDS011;28444;48.056;14.408;2022-11-20T07:18:57;59.28;;;27.02;;
38911;SDS011;28444;48.056;14.408;2022-11-20T07:21:44;55.22;;;27.98;;
38911;SDS011;28444;48.056;14.408;2022-11-20T07:24:31;64.47;;;30.15;;
38911;SDS011;28444;48.056;14.408;2022-11-20T07:27:18;56.55;;;27.02;;
38911;SDS011;28444;48.056;14.408;2022-11-20T07:30:05;55.72;;;25.95;;
38911;SDS011;28444;48.056;14.408;2022-11-20T07:32:53;56.05;;;27.65;;
38911;SDS011;28444;48.056;14.408;2022-11-20T07:35:41;65.13;;;27.55;;
38911;SDS011;28444;48.056;14.408;2022-11-20T07:38:29;59.38;;;28.42;;
38911;SDS011;28444;48.056;14.408;2022-11-20T07:41:16;54.08;;;27.00;;
38911;SDS011;28444;48.056;14.408;2022-11-20T07:44:03;56.25;;;27.88;;
38911;SDS011;28444;48.056;14.408;2022-11-20T07:46:50;64.15;;;29.05;;
38911;SDS011;28444;48.056;14.408;2022-11-20T07:49:40;59.13;;;27.63;;
38911;SDS011;28444;48.056;14.408;2022-11-20T07:52:30;54.13;;;25.70;;
38911;SDS011;28444;48.056;14.408;2022-11-20T07:55:17;58.13;;;26.52;;
38911;SDS011;28444;48.056;14.408;2022-11-20T07:58:04;53.55;;;26.95;;
38911;SDS011;28444;48.056;14.408;2022-11-20T08:00:51;57.83;;;27.20;;
38911;SDS011;28444;48.056;14.408;2022-11-20T08:03:38;56.53;;;29.17;;
38911;SDS011;28444;48.056;14.408;2022-11-20T08:06:25;49.70;;;25.48;;
38911;SDS011;28444;48.056;14.408;2022-11-20T08:09:13;53.33;;;27.42;;
38911;SDS011;28444;48.056;14.408;2022-11-20T08:12:00;58.30;;;26.80;;
38911;SDS011;28444;48.056;14.408;2022-11-20T08:15:06;59.05;;;28.02;;
38911;SDS011;28444;48.056;14.408;2022-11-20T08:17:59;57.47;;;27.58;;
38911;SDS011;28444;48.056;14.408;2022-11-20T08:21:07;60.53;;;27.52;;
38911;SDS011;28444;48.056;14.408;2022-11-20T08:23:54;61.50;;;28.67;;
38911;SDS011;28444;48.056;14.408;2022-11-20T08:26:41;64.57;;;28.17;;
38911;SDS011;28444;48.056;14.408;2022-11-20T08:29:28;62.38;;;30.38;;
38911;SDS011;28444;48.056;14.408;2022-11-20T08:32:15;60.25;;;28.40;;
38911;SDS011;28444;48.056;14.408;2022-11-20T08:35:02;59.45;;;29.35;;
38911;SDS011;28444;48.056;14.408;2022-11-20T08:37:50;54.00;;;28.25;;
38911;SDS011;28444;48.056;14.408;2022-11-20T08:40:37;56.33;;;27.48;;
38911;SDS011;28444;48.056;14.408;2022-11-20T08:43:24;59.85;;;28.42;;
38911;SDS011;28444;48.056;14.408;2022-11-20T08:46:11;52.13;;;27.20;;
38911;SDS011;28444;48.056;14.408;2022-11-20T08:48:58;54.38;;;26.45;;
38911;SDS011;28444;48.056;14.408;2022-11-20T08:51:45;54.38;;;28.38;;
38911;SDS011;28444;48.056;14.408;2022-11-20T08:54:34;53.60;;;26.10;;
38911;SDS011;28444;48.056;14.408;2022-11-20T08:57:21;55.15;;;26.35;;
38911;SDS011;28444;48.056;14.408;2022-11-20T09:00:09;59.10;;;28.05;;
38911;SDS011;28444;48.056;14.408;2022-11-20T09:02:58;55.38;;;27.40;;
38911;SDS011;28444;48.056;14.408;2022-11-20T09:05:45;54.80;;;26.27;;
38911;SDS011;28444;48.056;14.408;2022-11-20T09:08:33;58.05;;;28.63;;
38911;SDS011;28444;48.056;14.408;2022-11-20T09:11:21;51.58;;;26.27;;
38911;SDS011;28444;48.056;14.408;2022-11-20T09:14:09;55.10;;;28.05;;
38911;SDS011;28444;48.056;14.408;2022-11-20T09:16:56;52.15;;;26.73;;
38911;SDS011;28444;48.056;14.408;2022-11-20T09:19:43;50.45;;;26.05;;
38911;SDS011;28444;48.056;14.408;2022-11-20T09:22:30;51.22;;;26.77;;
38911;SDS011;28444;48.056;14.408;2022-11-20T09:25:17;56.00;;;28.63;;
38911;SDS011;28444;48.056;14.408;2022-11-20T09:28:04;57.05;;;28.15;;
38911;SDS011;28444;48.056;14.408;2022-11-20T09:30:51;59.28;;;29.27;;
38911;SDS011;28444;48.056;14.408;2022-11-20T09:33:38;51.65;;;25.95;;
38911;SDS011;28444;48.056;14.408;2022-11-20T09:36:25;58.03;;;28.33;;
38911;SDS011;28444;48.056;14.408;2022-11-20T09:39:12;55.72;;;26.33;;
38911;SDS011;28444;48.056;14.408;2022-11-20T09:42:05;49.97;;;29.13;;
38911;SDS011;28444;48.056;14.408;2022-11-20T09:45:18;50.88;;;26.45;;
38911;SDS011;28444;48.056;14.408;2022-11-20T09:52:07;48.70;;;27.40;;
38911;SDS011;28444;48.056;14.408;2022-11-20T09:55:23;56.70;;;28.65;;
38911;SDS011;28444;48.056;14.408;2022-11-20T09:58:16;57.83;;;28.35;;
38911;SDS011;28444;48.056;14.408;2022-11-20T10:01:37;62.83;;;31.08;;
38911;SDS011;28444;48.056;14.408;2022-11-20T10:04:27;59.03;;;29.23;;
38911;SDS011;28444;48.056;14.408;2022-11-20T10:07:23;65.85;;;30.35;;
38911;SDS011;28444;48.056;14.408;2022-11-20T10:10:29;64.82;;;32.95;;
38911;SDS011;28444;48.056;14.408;2022-11-20T10:13:35;74.60;;;30.27;;
38911;SDS011;28444;48.056;14.408;2022-11-20T10:16:46;63.85;;;29.15;;
38911;SDS011;28444;48.056;14.408;2022-11-20T10:19:42;100.00;;;47.10;;
38911;SDS011;28444;48.056;14.408;2022-11-20T10:22:38;79.53;;;35.22;;
38911;SDS011;28444;48.056;14.408;2022-11-20T10:25:39;65.00;;;31.23;;
38911;SDS011;28444;48.056;14.408;2022-11-20T10:32:10;62.78;;;31.13;;
38911;SDS011;28444;48.056;14.408;2022-11-20T10:35:16;54.15;;;29.15;;
38911;SDS011;28444;48.056;14.408;2022-11-20T10:38:21;54.75;;;28.13;;
38911;SDS011;28444;48.056;14.408;2022-11-20T10:41:16;48.28;;;22.90;;
38911;SDS011;28444;48.056;14.408;2022-11-20T10:44:24;39.95;;;22.10;;
38911;SDS011;28444;48.056;14.408;2022-11-20T10:47:32;39.78;;;21.65;;
38911;SDS011;28444;48.056;14.408;2022-11-20T10:50:20;43.70;;;22.80;;
38911;SDS011;28444;48.056;14.408;2022-11-20T10:56:47;31.77;;;18.00;;
38911;SDS011;28444;48.056;14.408;2022-11-20T10:59:58;38.05;;;19.05;;
38911;SDS011;28444;48.056;14.408;2022-11-20T11:02:49;32.72;;;16.70;;
38911;SDS011;28444;48.056;14.408;2022-11-20T11:05:39;33.22;;;17.58;;
38911;SDS011;28444;48.056;14.408;2022-11-20T11:08:32;33.70;;;15.48;;
38911;SDS011;28444;48.056;14.408;2022-11-20T11:11:25;18.27;;;10.27;;
38911;SDS011;28444;48.056;14.408;2022-11-20T11:14:15;9.73;;;4.18;;
38911;SDS011;28444;48.056;14.408;2022-11-20T11:17:02;4.82;;;2.67;;
38911;SDS011;28444;48.056;14.408;2022-11-20T11:20:06;2.83;;;2.05;;
38911;SDS011;28444;48.056;14.408;2022-11-20T11:23:03;2.40;;;1.92;;
38911;SDS011;28444;48.056;14.408;2022-11-20T11:25:56;2.22;;;1.80;;
38911;SDS011;28444;48.056;14.408;2022-11-20T11:28:55;3.78;;;2.00;;
38911;SDS011;28444;48.056;14.408;2022-11-20T11:31:45;2.33;;;1.80;;
38911;SDS011;28444;48.056;14.408;2022-11-20T11:34:32;2.13;;;1.88;;
38911;SDS011;28444;48.056;14.408;2022-11-20T11:37:20;2.55;;;1.63;;
38911;SDS011;28444;48.056;14.408;2022-11-20T11:40:11;2.00;;;1.50;;
38911;SDS011;28444;48.056;14.408;2022-11-20T11:43:17;1.65;;;1.33;;
38911;SDS011;28444;48.056;14.408;2022-11-20T11:46:35;2.08;;;1.20;;
38911;SDS011;28444;48.056;14.408;2022-11-20T11:49:23;3.58;;;1.73;;
38911;SDS011;28444;48.056;14.408;2022-11-20T11:52:18;1.83;;;1.13;;
38911;SDS011;28444;48.056;14.408;2022-11-20T11:55:09;2.15;;;1.23;;
38911;SDS011;28444;48.056;14.408;2022-11-20T11:58:19;2.80;;;1.38;;
38911;SDS011;28444;48.056;14.408;2022-11-20T12:01:50;1.60;;;1.50;;
38911;SDS011;28444;48.056;14.408;2022-11-20T12:04:46;2.35;;;1.55;;
38911;SDS011;28444;48.056;14.408;2022-11-20T12:07:42;7.57;;;2.08;;
38911;SDS011;28444;48.056;14.408;2022-11-20T12:10:41;4.45;;;2.67;;
38911;SDS011;28444;48.056;14.408;2022-11-20T12:13:54;3.90;;;1.67;;
38911;SDS011;28444;48.056;14.408;2022-11-20T12:16:51;2.67;;;1.92;;
38911;SDS011;28444;48.056;14.408;2022-11-20T12:19:39;4.35;;;1.83;;
38911;SDS011;28444;48.056;14.408;2022-11-20T12:36:37;6.85;;;1.45;;
38911;SDS011;28444;48.056;14.408;2022-11-20T12:39:34;2.00;;;1.52;;
38911;SDS011;28444;48.056;14.408;2022-11-20T12:42:24;2.03;;;1.30;;
38911;SDS011;28444;48.056;14.408;2022-11-20T12:46:03;1.38;;;1.10;;
38911;SDS011;28444;48.056;14.408;2022-11-20T12:49:15;1.40;;;1.30;;
38911;SDS011;28444;48.056;14.408;2022-11-20T12:55:31;1.38;;;1.27;;
38911;SDS011;28444;48.056;14.408;2022-11-20T13:01:46;2.05;;;1.30;;
38911;SDS011;28444;48.056;14.408;2022-11-20T13:14:32;1.75;;;1.23;;
38911;SDS011;28444;48.056;14.408;2022-11-20T13:17:32;3.00;;;1.60;;
38911;SDS011;28444;48.056;14.408;2022-11-20T13:20:23;1.80;;;1.20;;
38911;SDS011;28444;48.056;14.408;2022-11-20T13:23:10;2.67;;;1.60;;
38911;SDS011;28444;48.056;14.408;2022-11-20T13:26:04;1.50;;;1.40;;
38911;SDS011;28444;48.056;14.408;2022-11-20T13:29:18;3.92;;;1.33;;
38911;SDS011;28444;48.056;14.408;2022-11-20T13:32:16;1.58;;;1.48;;
38911;SDS011;28444;48.056;14.408;2022-11-20T13:35:04;3.15;;;1.48;;
38911;SDS011;28444;48.056;14.408;2022-11-20T13:38:02;2.00;;;1.30;;
38911;SDS011;28444;48.056;14.408;2022-11-20T13:40:54;2.88;;;1.50;;
38911;SDS011;28444;48.056;14.408;2022-11-20T13:43:46;5.10;;;1.50;;
38911;SDS011;28444;48.056;14.408;2022-11-20T13:46:42;3.22;;;1.83;;
38911;SDS011;28444;48.056;14.408;2022-11-20T13:49:38;4.85;;;1.83;;
38911;SDS011;28444;48.056;14.408;2022-11-20T13:52:36;2.55;;;2.10;;
38911;SDS011;28444;48.056;14.408;2022-11-20T13:59:29;3.28;;;2.30;;
38911;SDS011;28444;48.056;14.408;2022-11-20T14:02:43;17.10;;;8.48;;
38911;SDS011;28444;48.056;14.408;2022-11-20T14:05:46;25.15;;;15.40;;
38911;SDS011;28444;48.056;14.408;2022-11-20T14:08:39;20.13;;;10.77;;
38911;SDS011;28444;48.056;14.408;2022-11-20T14:11:30;15.85;;;9.32;;
38911;SDS011;28444;48.056;14.408;2022-11-20T14:14:19;28.95;;;14.85;;
38911;SDS011;28444;48.056;14.408;2022-11-20T14:17:08;46.00;;;16.90;;
38911;SDS011;28444;48.056;14.408;2022-11-20T14:20:05;32.10;;;17.92;;
38911;SDS011;28444;48.056;14.408;2022-11-20T14:22:58;31.27;;;18.15;;
38911;SDS011;28444;48.056;14.408;2022-11-20T14:25:45;38.08;;;21.98;;
38911;SDS011;28444;48.056;14.408;2022-11-20T14:28:32;37.70;;;20.58;;
38911;SDS011;28444;48.056;14.408;2022-11-20T14:31:22;45.42;;;23.92;;
38911;SDS011;28444;48.056;14.408;2022-11-20T14:34:15;45.17;;;23.55;;
38911;SDS011;28444;48.056;14.408;2022-11-20T14:37:18;39.53;;;24.33;;
38911;SDS011;28444;48.056;14.408;2022-11-20T14:40:21;42.08;;;24.13;;
38911;SDS011;28444;48.056;14.408;2022-11-20T14:43:23;49.13;;;25.02;;
38911;SDS011;28444;48.056;14.408;2022-11-20T14:46:14;51.15;;;24.95;;
38911;SDS011;28444;48.056;14.408;2022-11-20T14:49:02;46.83;;;25.25;;
38911;SDS011;28444;48.056;14.408;2022-11-20T14:52:09;49.13;;;25.27;;
38911;SDS011;28444;48.056;14.408;2022-11-20T14:54:59;44.65;;;23.45;;
38911;SDS011;28444;48.056;14.408;2022-11-20T14:57:53;45.45;;;24.95;;
38911;SDS011;28444;48.056;14.408;2022-11-20T15:00:41;43.53;;;23.50;;
38911;SDS011;28444;48.056;14.408;2022-11-20T15:03:40;38.40;;;22.38;;
38911;SDS011;28444;48.056;14.408;2022-11-20T15:06:27;37.33;;;22.05;;
38911;SDS011;28444;48.056;14.408;2022-11-20T15:09:15;44.67;;;21.95;;
38911;SDS011;28444;48.056;14.408;2022-11-20T15:12:02;41.78;;;20.42;;
38911;SDS011;28444;48.056;14.408;2022-11-20T15:14:50;41.63;;;23.92;;
38911;SDS011;28444;48.056;14.408;2022-11-20T15:17:37;34.42;;;19.83;;
38911;SDS011;28444;48.056;14.408;2022-11-20T15:20:31;43.47;;;23.90;;
38911;SDS011;28444;48.056;14.408;2022-11-20T15:23:19;41.80;;;23.40;;
38911;SDS011;28444;48.056;14.408;2022-11-20T15:26:07;47.58;;;26.50;;
38911;SDS011;28444;48.056;14.408;2022-11-20T15:28:55;49.47;;;28.02;;
38911;SDS011;28444;48.056;14.408;2022-11-20T15:31:42;50.65;;;25.73;;
38911;SDS011;28444;48.056;14.408;2022-11-20T15:34:31;47.00;;;26.48;;
38911;SDS011;28444;48.056;14.408;2022-11-20T15:37:18;53.05;;;29.67;;
38911;SDS011;28444;48.056;14.408;2022-11-20T15:40:05;50.15;;;27.27;;
38911;SDS011;28444;48.056;14.408;2022-11-20T15:42:53;48.42;;;26.23;;
38911;SDS011;28444;48.056;14.408;2022-11-20T15:45:59;49.85;;;26.23;;
38911;SDS011;28444;48.056;14.408;2022-11-20T16:06:01;31.90;;;20.45;;
38911;SDS011;28444;48.056;14.408;2022-11-20T16:08:48;8.48;;;5.38;;
38911;SDS011;28444;48.056;14.408;2022-11-20T16:11:35;4.80;;;2.60;;
38911;SDS011;28444;48.056;14.408;2022-11-20T16:14:23;1.92;;;1.52;;
38911;SDS011;28444;48.056;14.408;2022-11-20T16:17:29;1.95;;;1.10;;
38911;SDS011;28444;48.056;14.408;2022-11-20T16:20:28;1.42;;;1.13;;
38911;SDS011;28444;48.056;14.408;2022-11-20T16:23:16;1.65;;;1.23;;
38911;SDS011;28444;48.056;14.408;2022-11-20T16:26:09;1.30;;;1.13;;
38911;SDS011;28444;48.056;14.408;2022-11-20T16:29:00;0.88;;;0.88;;
38911;SDS011;28444;48.056;14.408;2022-11-20T16:31:49;1.20;;;1.10;;
38911;SDS011;28444;48.056;14.408;2022-11-20T16:34:36;1.10;;;0.90;;
38911;SDS011;28444;48.056;14.408;2022-11-20T16:37:22;1.00;;;1.00;;
38911;SDS011;28444;48.056;14.408;2022-11-20T16:40:10;0.88;;;0.82;;
38911;SDS011;28444;48.056;14.408;2022-11-20T16:42:58;2.65;;;1.25;;
38911;SDS011;28444;48.056;14.408;2022-11-20T16:45:54;0.95;;;0.95;;
38911;SDS011;28444;48.056;14.408;2022-11-20T16:48:40;1.15;;;1.08;;
38911;SDS011;28444;48.056;14.408;2022-11-20T16:51:28;1.55;;;1.45;;
38911;SDS011;28444;48.056;14.408;2022-11-20T16:54:16;3.35;;;1.02;;
38911;SDS011;28444;48.056;14.408;2022-11-20T16:57:07;1.70;;;1.23;;
38911;SDS011;28444;48.056;14.408;2022-11-20T16:59:54;2.75;;;1.42;;
38911;SDS011;28444;48.056;14.408;2022-11-20T17:02:47;4.80;;;2.20;;
38911;SDS011;28444;48.056;14.408;2022-11-20T17:05:34;3.53;;;2.15;;
38911;SDS011;28444;48.056;14.408;2022-11-20T17:08:21;4.47;;;2.88;;
38911;SDS011;28444;48.056;14.408;2022-11-20T17:11:10;5.00;;;3.58;;
38911;SDS011;28444;48.056;14.408;2022-11-20T17:13:59;7.65;;;3.90;;
38911;SDS011;28444;48.056;14.408;2022-11-20T17:16:46;6.43;;;3.85;;
38911;SDS011;28444;48.056;14.408;2022-11-20T17:19:33;7.07;;;3.78;;
38911;SDS011;28444;48.056;14.408;2022-11-20T17:22:20;4.75;;;2.20;;
38911;SDS011;28444;48.056;14.408;2022-11-20T17:25:07;4.07;;;2.47;;
38911;SDS011;28444;48.056;14.408;2022-11-20T17:27:54;4.22;;;2.45;;
38911;SDS011;28444;48.056;14.408;2022-11-20T17:30:41;2.63;;;2.00;;
38911;SDS011;28444;48.056;14.408;2022-11-20T17:33:28;4.40;;;2.92;;
38911;SDS011;28444;48.056;14.408;2022-11-20T17:36:18;3.60;;;2.65;;
38911;SDS011;28444;48.056;14.408;2022-11-20T17:39:05;5.72;;;1.70;;
38911;SDS011;28444;48.056;14.408;2022-11-20T17:41:52;3.08;;;2.40;;
38911;SDS011;28444;48.056;14.408;2022-11-20T17:44:57;2.67;;;1.75;;